createdAt,value
2023-05-05T00:01:34.856Z,65.30
2023-05-05T00:04:36.673Z,65.25
2023-05-05T00:07:38.673Z,65.08
2023-05-05T00:10:40.856Z,65.15
2023-05-05T00:13:42.771Z,65.37
2023-05-05T00:16:44.866Z,65.35
2023-05-05T00:19:46.928Z,65.45
2023-05-05T00:22:48.994Z,65.35
2023-05-05T00:25:50.920Z,65.37
2023-05-05T00:28:52.657Z,65.23
2023-05-05T00:31:54.601Z,65.46
2023-05-05T00:34:56.742Z,65.61
2023-05-05T00:37:58.875Z,66.04
2023-05-05T00:41:01.003Z,66.13
2023-05-05T00:44:02.978Z,66.11
2023-05-05T00:47:05.441Z,66.34
2023-05-05T00:50:08.719Z,66.23
2023-05-05T00:53:12.076Z,66.39
2023-05-05T00:56:15.640Z,66.44
2023-05-05T00:59:17.775Z,66.53
2023-05-05T01:02:19.491Z,66.41
2023-05-05T01:05:22.904Z,66.02
2023-05-05T01:08:27.539Z,66.05
2023-05-05T01:12:19.612Z,66.15
2023-05-05T01:15:34.237Z,66.45
2023-05-05T01:18:46.383Z,66.68
2023-05-05T01:21:52.168Z,66.80
2023-05-05T01:25:25.781Z,66.80
2023-05-05T01:28:33.825Z,66.74
2023-05-05T01:32:11.338Z,66.56
2023-05-05T01:35:21.073Z,66.88
2023-05-05T01:38:26.647Z,66.97
2023-05-05T01:41:49.155Z,67.28
2023-05-05T01:44:52.463Z,67.47
2023-05-05T01:47:55.861Z,67.21
2023-05-05T01:50:57.861Z,67.20
2023-05-05T01:54:01.893Z,67.37
2023-05-05T01:57:05.955Z,67.25
2023-05-05T02:00:08.828Z,67.45
2023-05-05T02:03:12.401Z,67.44
2023-05-05T02:06:14.933Z,67.62
2023-05-05T02:09:17.118Z,67.54
2023-05-05T02:12:24.825Z,67.63
2023-05-05T02:15:28.021Z,67.18
2023-05-05T02:18:31.209Z,67.01
2023-05-05T02:21:34.170Z,67.24
2023-05-05T02:24:36.389Z,67.43
2023-05-05T02:27:41.805Z,67.52
2023-05-05T02:30:55.992Z,67.73
2023-05-05T02:34:00.579Z,67.96
2023-05-05T02:37:07.088Z,67.78
2023-05-05T02:40:10.199Z,67.96
2023-05-05T02:43:17.081Z,67.88
2023-05-05T02:46:19.413Z,68.26
2023-05-05T02:49:21.282Z,68.32
2023-05-05T02:52:24.031Z,68.30
2023-05-05T02:55:39.896Z,68.15
2023-05-05T02:58:53.104Z,68.32
2023-05-05T03:02:08.464Z,68.31
2023-05-05T03:05:13.010Z,68.17
2023-05-05T03:08:24.645Z,68.42
2023-05-05T03:11:30.812Z,68.08
2023-05-05T03:14:37.536Z,68.11
2023-05-05T03:17:44.632Z,68.53
2023-05-05T03:20:47.339Z,68.35
2023-05-05T03:23:58.486Z,68.04
2023-05-05T03:27:00.802Z,67.99
2023-05-05T03:30:02.761Z,68.62
2023-05-05T03:33:04.727Z,68.65
2023-05-05T03:36:06.743Z,68.64
2023-05-05T03:39:09.019Z,69.09
2023-05-05T03:42:10.921Z,68.90
2023-05-05T03:45:13.200Z,68.78
2023-05-05T03:48:15.230Z,69.05
2023-05-05T03:51:17.384Z,68.80
2023-05-05T03:54:19.153Z,69.23
2023-05-05T03:57:21.103Z,69.04
2023-05-05T04:00:23.608Z,69.12
2023-05-05T04:03:26.090Z,69.09
2023-05-05T04:06:28.551Z,69.18
2023-05-05T04:09:30.774Z,68.98
2023-05-05T04:12:32.663Z,68.81
2023-05-05T04:15:35.010Z,68.87
2023-05-05T04:18:37.312Z,69.21
2023-05-05T04:21:39.260Z,69.23
2023-05-05T04:24:41.438Z,69.47
2023-05-05T04:27:43.752Z,69.45
2023-05-05T04:30:45.768Z,69.81
2023-05-05T04:33:47.444Z,69.70
2023-05-05T04:36:49.238Z,69.50
2023-05-05T04:39:51.886Z,69.71
2023-05-05T04:42:53.815Z,69.52
2023-05-05T04:45:56.043Z,69.32
2023-05-05T04:48:58.908Z,69.10
2023-05-05T04:52:00.667Z,68.92
2023-05-05T04:55:03.300Z,69.22
2023-05-05T04:58:05.622Z,69.08
2023-05-05T05:01:07.497Z,69.02
2023-05-05T05:04:09.604Z,68.49
2023-05-05T05:07:11.408Z,68.57
2023-05-05T05:10:13.384Z,67.90
2023-05-05T05:13:15.134Z,67.99
2023-05-05T05:16:17.356Z,68.16
2023-05-05T05:19:19.341Z,68.22
2023-05-05T05:22:21.103Z,68.11
2023-05-05T05:25:23.650Z,67.96
2023-05-05T05:28:25.539Z,68.03
2023-05-05T05:34:10.721Z,67.95
2023-05-05T05:37:14.332Z,67.56
2023-05-05T05:40:16.684Z,67.39
2023-05-05T05:43:18.464Z,67.71
2023-05-05T05:46:20.323Z,67.05
2023-05-05T05:49:22.263Z,66.31
2023-05-05T05:52:24.021Z,66.06
2023-05-05T05:55:26.472Z,66.08
2023-05-05T05:58:28.261Z,66.29
2023-05-05T06:01:30.111Z,66.02
2023-05-05T06:04:32.248Z,65.11
2023-05-05T06:07:34.242Z,64.54
2023-05-05T06:10:36.422Z,63.83
2023-05-05T06:13:38.649Z,64.53
2023-05-05T06:16:40.711Z,64.99
2023-05-05T06:19:42.468Z,64.86
2023-05-05T06:22:44.209Z,64.21
2023-05-05T06:25:46.236Z,62.86
2023-05-05T06:28:48.295Z,63.13
2023-05-05T06:31:50.087Z,63.48
2023-05-05T06:34:52.242Z,63.12
2023-05-05T06:37:54.036Z,62.68
2023-05-05T06:40:55.950Z,62.70
2023-05-05T06:43:57.626Z,61.60
2023-05-05T06:46:59.720Z,60.80
2023-05-05T06:50:01.877Z,60.77
2023-05-05T06:53:03.623Z,61.69
2023-05-05T06:56:05.580Z,61.74
2023-05-05T06:59:07.750Z,61.92
2023-05-05T07:02:09.592Z,61.70
2023-05-05T07:05:11.699Z,60.71
2023-05-05T07:08:13.415Z,60.96
2023-05-05T07:11:15.858Z,59.27
2023-05-05T07:14:18.657Z,60.00
2023-05-05T07:17:20.455Z,60.36
2023-05-05T07:20:22.671Z,59.97
2023-05-05T07:23:24.404Z,59.89
2023-05-05T07:26:26.347Z,59.15
2023-05-05T07:29:28.244Z,58.27
2023-05-05T07:32:30.087Z,58.55
2023-05-05T07:35:31.888Z,58.44
2023-05-05T07:38:33.591Z,57.49
2023-05-05T07:41:35.410Z,55.74
2023-05-05T07:44:37.213Z,53.62
2023-05-05T07:47:39.201Z,52.47
2023-05-05T07:50:41.222Z,53.40
2023-05-05T07:53:43.080Z,53.14
2023-05-05T07:56:45.244Z,53.82
2023-05-05T07:59:46.951Z,52.90
2023-05-05T08:02:48.898Z,51.10
2023-05-05T08:05:51.786Z,51.70
2023-05-05T08:08:54.821Z,49.59
2023-05-05T08:11:56.858Z,49.57
2023-05-05T08:14:59.055Z,47.54
2023-05-05T08:18:14.784Z,46.57
2023-05-05T08:21:17.350Z,47.69
2023-05-05T08:24:19.194Z,48.01
2023-05-05T08:27:24.900Z,45.99
2023-05-05T08:30:26.808Z,45.83
2023-05-05T08:33:28.966Z,47.07
2023-05-05T08:36:30.776Z,45.67
2023-05-05T08:39:32.771Z,45.42
2023-05-05T08:42:38.409Z,46.41
2023-05-05T08:45:44.772Z,45.97
2023-05-05T08:48:48.701Z,46.10
2023-05-05T08:51:51.030Z,46.53
2023-05-05T08:54:58.030Z,44.14
2023-05-05T08:58:00.575Z,44.65
2023-05-05T09:01:03.035Z,44.13
2023-05-05T09:04:04.995Z,41.44
2023-05-05T09:07:07.453Z,42.32
2023-05-05T09:10:10.526Z,41.25
2023-05-05T09:13:30.419Z,42.78
2023-05-05T09:16:32.251Z,41.58
2023-05-05T09:19:33.877Z,38.15
2023-05-05T09:22:45.267Z,39.97
2023-05-05T09:26:02.661Z,41.44
2023-05-05T09:29:04.883Z,39.62
2023-05-05T09:32:06.816Z,38.74
2023-05-05T09:35:08.901Z,40.31
2023-05-05T09:38:11.792Z,41.17
2023-05-05T09:41:13.848Z,40.38
2023-05-05T09:44:15.488Z,38.60
2023-05-05T09:47:26.341Z,38.91
2023-05-05T09:50:42.905Z,39.74
2023-05-05T09:53:44.615Z,40.29
2023-05-05T09:56:46.620Z,37.34
2023-05-05T09:59:58.690Z,36.10
2023-05-05T10:06:04.553Z,34.63
2023-05-05T10:09:06.179Z,36.51
2023-05-05T10:12:08.259Z,38.58
2023-05-05T10:15:11.892Z,36.87
2023-05-05T10:18:15.192Z,36.63
2023-05-05T10:21:20.420Z,36.11
2023-05-05T10:24:35.333Z,37.08
2023-05-05T10:27:43.309Z,35.77
2023-05-05T10:30:46.209Z,37.29
2023-05-05T10:33:53.323Z,35.69
2023-05-05T10:36:57.419Z,37.02
2023-05-05T10:39:59.310Z,38.17
2023-05-05T10:43:01.137Z,37.52
2023-05-05T10:46:03.345Z,38.20
2023-05-05T10:49:13.976Z,37.27
2023-05-05T10:52:26.161Z,37.05
2023-05-05T10:55:51.071Z,34.63
2023-05-05T10:58:59.797Z,36.84
2023-05-05T11:02:27.524Z,37.50
2023-05-05T11:05:30.186Z,37.54
2023-05-05T11:08:36.640Z,37.03
2023-05-05T11:12:04.589Z,37.52
2023-05-05T11:15:28.491Z,36.97
2023-05-05T11:18:31.292Z,37.07
2023-05-05T11:22:02.077Z,35.66
2023-05-05T11:25:36.741Z,35.93
2023-05-05T11:29:03.015Z,36.04
2023-05-05T11:32:14.155Z,36.25
2023-05-05T11:35:16.019Z,36.46
2023-05-05T11:38:18.446Z,35.07
2023-05-05T11:41:32.453Z,36.29
2023-05-05T11:44:34.965Z,36.17
2023-05-05T11:47:36.837Z,33.99
2023-05-05T11:50:38.732Z,34.32
2023-05-05T11:53:44.951Z,35.06
2023-05-05T11:56:54.341Z,35.02
2023-05-05T12:00:05.538Z,35.67
2023-05-05T12:03:07.643Z,35.68
2023-05-05T12:06:10.071Z,35.19
2023-05-05T12:09:19.521Z,35.65
2023-05-05T12:12:21.891Z,35.30
2023-05-05T12:15:32.916Z,35.51
2023-05-05T12:18:35.087Z,34.86
2023-05-05T12:21:36.974Z,34.03
2023-05-05T12:24:38.668Z,31.67
2023-05-05T12:27:40.352Z,31.98
2023-05-05T12:30:42.038Z,33.44
2023-05-05T12:33:44.121Z,33.97
2023-05-05T12:36:45.886Z,34.02
2023-05-05T12:39:48.747Z,33.85
2023-05-05T12:42:50.453Z,33.84
2023-05-05T12:46:12.387Z,33.10
2023-05-05T12:49:14.763Z,33.00
2023-05-05T12:52:16.591Z,32.99
2023-05-05T12:55:18.572Z,32.78
2023-05-05T12:58:20.199Z,32.66
2023-05-05T13:01:21.986Z,32.36
2023-05-05T13:04:25.324Z,32.16
2023-05-05T13:07:26.907Z,31.74
2023-05-05T13:10:28.500Z,31.33
2023-05-05T13:13:32.137Z,31.33
2023-05-05T13:16:34.204Z,31.01
2023-05-05T13:19:36.006Z,30.70
2023-05-05T13:22:38.671Z,29.66
2023-05-05T13:25:40.746Z,29.41
2023-05-05T13:28:42.436Z,29.06
2023-05-05T13:31:44.948Z,29.51
2023-05-05T13:34:47.428Z,29.45
2023-05-05T13:37:49.257Z,28.63
2023-05-05T13:40:51.136Z,28.97
2023-05-05T13:43:53.108Z,28.41
2023-05-05T13:46:55.023Z,29.16
2023-05-05T13:49:56.856Z,29.25
2023-05-05T13:52:58.804Z,28.30
2023-05-05T13:56:01.041Z,28.61
2023-05-05T13:59:02.778Z,28.94
2023-05-05T14:02:04.419Z,28.40
2023-05-05T14:05:06.938Z,27.91
2023-05-05T14:08:09.799Z,28.20
2023-05-05T14:11:11.534Z,28.16
2023-05-05T14:14:13.495Z,26.99
2023-05-05T14:17:15.128Z,24.38
2023-05-05T14:20:16.822Z,25.61
2023-05-05T14:23:18.605Z,26.03
2023-05-05T14:26:20.544Z,25.94
2023-05-05T14:29:22.234Z,26.22
2023-05-05T14:32:24.714Z,26.34
2023-05-05T14:35:26.815Z,24.86
2023-05-05T14:38:28.888Z,25.84
2023-05-05T14:41:30.648Z,25.92
2023-05-05T14:44:32.365Z,25.79
2023-05-05T14:47:34.538Z,24.43
2023-05-05T14:50:36.505Z,25.01
2023-05-05T14:53:38.863Z,25.07
2023-05-05T14:56:40.938Z,25.07
2023-05-05T14:59:42.528Z,25.33
2023-05-05T15:02:44.422Z,25.21
2023-05-05T15:05:46.355Z,23.15
2023-05-05T15:08:48.219Z,25.38
2023-05-05T15:11:50.088Z,26.49
2023-05-05T15:14:51.909Z,27.38
2023-05-05T15:17:53.582Z,27.81
2023-05-05T15:20:55.251Z,28.11
2023-05-05T15:23:56.916Z,28.41
2023-05-05T15:26:58.882Z,28.76
2023-05-05T15:30:00.583Z,29.20
2023-05-05T15:33:02.693Z,28.94
2023-05-05T15:36:04.964Z,28.82
2023-05-05T15:39:06.693Z,29.59
2023-05-05T15:42:08.331Z,30.04
2023-05-05T15:45:10.811Z,30.02
2023-05-05T15:48:12.873Z,30.40
2023-05-05T15:51:14.594Z,30.84
2023-05-05T15:54:16.262Z,31.50
2023-05-05T15:57:18.238Z,31.64
2023-05-05T16:00:20.325Z,32.09
2023-05-05T16:03:22.130Z,32.35
2023-05-05T16:06:24.229Z,32.56
2023-05-05T16:09:26.201Z,32.68
2023-05-05T16:12:28.118Z,33.02
2023-05-05T16:15:29.821Z,32.77
2023-05-05T16:18:31.687Z,32.63
2023-05-05T16:21:33.315Z,33.40
2023-05-05T16:24:35.054Z,33.94
2023-05-05T16:27:36.785Z,34.27
2023-05-05T16:30:38.462Z,34.46
2023-05-05T16:33:40.390Z,34.64
2023-05-05T16:36:44.156Z,34.77
2023-05-05T16:39:46.273Z,34.87
2023-05-05T16:42:48.236Z,35.14
2023-05-05T16:45:50.054Z,35.26
2023-05-05T16:48:51.789Z,35.18
2023-05-05T16:51:53.567Z,35.20
2023-05-05T16:54:55.234Z,35.95
2023-05-05T16:57:56.961Z,36.21
2023-05-05T17:00:58.727Z,36.54
2023-05-05T17:04:00.884Z,36.80
2023-05-05T17:07:02.508Z,37.06
2023-05-05T17:10:04.563Z,37.36
2023-05-05T17:13:08.504Z,37.32
2023-05-05T17:16:10.315Z,36.95
2023-05-05T17:19:12.004Z,36.75
2023-05-05T17:22:13.699Z,36.80
2023-05-05T17:25:15.737Z,37.09
2023-05-05T17:28:17.342Z,37.44
2023-05-05T17:31:19.094Z,37.83
2023-05-05T17:34:21.133Z,38.24
2023-05-05T17:37:23.248Z,38.71
2023-05-05T17:40:25.164Z,38.98
2023-05-05T17:43:27.239Z,39.23
2023-05-05T17:46:29.016Z,39.56
2023-05-05T17:49:30.993Z,39.99
2023-05-05T17:52:33.087Z,40.37
2023-05-05T17:55:35.324Z,40.60
2023-05-05T17:58:37.417Z,41.06
2023-05-05T18:01:39.324Z,41.49
2023-05-05T18:04:41.442Z,41.78
2023-05-05T18:07:47.386Z,42.29
2023-05-05T18:10:49.349Z,42.62
2023-05-05T18:13:51.285Z,42.91
2023-05-05T18:16:53.274Z,43.24
2023-05-05T18:19:58.449Z,43.47
2023-05-05T18:23:00.740Z,43.80
2023-05-05T18:26:02.912Z,44.24
2023-05-05T18:29:08.077Z,44.56
2023-05-05T18:32:10.439Z,44.81
2023-05-05T18:35:12.473Z,45.16
2023-05-05T18:38:14.999Z,45.32
2023-05-05T18:41:17.028Z,45.58
2023-05-05T18:44:19.216Z,45.86
2023-05-05T18:47:23.399Z,46.35
2023-05-05T18:50:25.232Z,46.46
2023-05-05T18:53:27.530Z,46.63
2023-05-05T18:56:29.544Z,47.03
2023-05-05T18:59:31.529Z,47.26
2023-05-05T19:02:33.700Z,47.18
2023-05-05T19:05:35.917Z,47.26
2023-05-05T19:08:38.495Z,46.86
2023-05-05T19:11:40.875Z,46.74
2023-05-05T19:14:42.701Z,47.10
2023-05-05T19:17:44.627Z,47.62
2023-05-05T19:20:46.676Z,48.46
2023-05-05T19:23:58.334Z,48.67
2023-05-05T19:27:03.192Z,48.83
2023-05-05T19:30:09.204Z,49.32
2023-05-05T19:33:14.934Z,49.72
2023-05-05T19:36:16.699Z,49.89
2023-05-05T19:39:18.749Z,50.44
2023-05-05T19:42:23.081Z,50.57
2023-05-05T19:45:36.466Z,50.89
2023-05-05T19:48:38.663Z,51.10
2023-05-05T19:51:41.682Z,51.15
2023-05-05T19:54:43.603Z,51.24
2023-05-05T19:57:46.272Z,51.25
2023-05-05T20:00:55.655Z,51.38
2023-05-05T20:03:57.605Z,51.46
2023-05-05T20:07:12.361Z,51.64
2023-05-05T20:10:14.401Z,51.56
2023-05-05T20:13:16.571Z,51.52
2023-05-05T20:16:26.391Z,51.71
2023-05-05T20:19:50.541Z,52.06
2023-05-05T20:22:52.787Z,52.09
2023-05-05T20:25:57.253Z,52.39
2023-05-05T20:28:59.826Z,52.45
2023-05-05T20:32:05.473Z,52.78
2023-05-05T20:35:09.947Z,52.88
2023-05-05T20:38:21.093Z,52.91
2023-05-05T20:41:25.534Z,53.10
2023-05-05T20:44:38.685Z,53.50
2023-05-05T20:47:46.266Z,53.93
2023-05-05T20:50:58.863Z,54.32
2023-05-05T20:54:04.147Z,54.31
2023-05-05T20:57:08.938Z,54.33
2023-05-05T21:00:20.047Z,54.45
2023-05-05T21:03:27.995Z,54.48
2023-05-05T21:07:10.364Z,54.55
2023-05-05T21:10:15.771Z,54.40
2023-05-05T21:13:24.112Z,54.58
2023-05-05T21:16:31.203Z,54.31
2023-05-05T21:19:46.926Z,54.80
2023-05-05T21:22:51.286Z,55.11
2023-05-05T21:25:55.967Z,54.99
2023-05-05T21:28:57.980Z,55.19
2023-05-05T21:32:00.278Z,55.28
2023-05-05T21:35:22.563Z,55.04
2023-05-05T21:38:24.422Z,55.26
2023-05-05T21:41:33.871Z,55.17
2023-05-05T21:44:56.813Z,54.98
2023-05-05T21:48:12.523Z,55.07
2023-05-05T21:51:22.020Z,55.25
2023-05-05T21:54:24.444Z,55.14
2023-05-05T21:57:29.511Z,55.56
2023-05-05T22:00:31.383Z,55.28
2023-05-05T22:03:36.375Z,55.62
2023-05-05T22:06:41.074Z,55.46
2023-05-05T22:09:43.676Z,55.54
2023-05-05T22:12:45.999Z,55.73
2023-05-05T22:15:48.047Z,55.56
2023-05-05T22:18:57.564Z,55.76
2023-05-05T22:21:59.646Z,55.70
2023-05-05T22:25:01.492Z,55.88
2023-05-05T22:28:03.911Z,56.11
2023-05-05T22:31:06.320Z,56.05
2023-05-05T22:34:11.441Z,56.11
2023-05-05T22:37:14.209Z,56.50
2023-05-05T22:40:16.643Z,56.73
2023-05-05T22:43:18.821Z,56.52
2023-05-05T22:46:21.072Z,57.04
2023-05-05T22:49:25.897Z,56.76
2023-05-05T22:54:26.326Z,56.65
2023-05-05T22:57:28.352Z,56.53
2023-05-05T23:00:30.540Z,56.37
2023-05-05T23:03:32.859Z,56.63
2023-05-05T23:06:48.153Z,56.59
2023-05-05T23:09:50.482Z,57.02
2023-05-05T23:12:56.075Z,56.86
2023-05-05T23:15:58.358Z,57.07
2023-05-05T23:19:00.442Z,57.23
2023-05-05T23:22:02.714Z,57.40
2023-05-05T23:25:05.146Z,57.29
2023-05-05T23:28:17.002Z,57.22
2023-05-05T23:31:19.168Z,57.37
2023-05-05T23:34:23.783Z,57.49
2023-05-05T23:37:29.683Z,57.85
2023-05-05T23:41:24.563Z,58.37
2023-05-05T23:44:30.038Z,57.99
2023-05-05T23:47:41.381Z,58.04
2023-05-05T23:50:46.422Z,58.17
2023-05-05T23:53:52.166Z,58.37
2023-05-05T23:56:54.771Z,58.27
2023-05-05T23:59:56.803Z,58.39
